createdAt,value
2019-01-13T00:01:26.243Z,5.30
2019-01-13T00:03:54.298Z,5.30
2019-01-13T00:06:22.108Z,5.30
2019-01-13T00:08:49.557Z,5.30
2019-01-13T00:11:17.342Z,5.30
2019-01-13T00:13:44.993Z,5.40
2019-01-13T00:16:13.163Z,5.30
2019-01-13T00:18:40.584Z,5.40
2019-01-13T00:21:08.313Z,5.40
2019-01-13T00:23:35.951Z,5.40
2019-01-13T00:26:03.675Z,5.40
2019-01-13T00:28:31.685Z,5.40
2019-01-13T00:30:59.010Z,5.40
2019-01-13T00:33:26.897Z,5.40
2019-01-13T00:35:54.631Z,5.50
2019-01-13T00:38:22.466Z,5.50
2019-01-13T00:40:49.701Z,5.50
2019-01-13T00:43:17.057Z,5.50
2019-01-13T00:45:44.761Z,5.50
2019-01-13T00:48:12.755Z,5.50
2019-01-13T00:50:40.143Z,5.50
2019-01-13T00:53:08.385Z,5.50
2019-01-13T00:55:35.754Z,5.50
2019-01-13T00:58:03.371Z,5.50
2019-01-13T01:00:30.745Z,5.50
2019-01-13T01:02:58.398Z,5.40
2019-01-13T01:05:26.205Z,5.40
2019-01-13T01:07:54.014Z,5.40
2019-01-13T01:10:21.896Z,5.30
2019-01-13T01:12:49.423Z,5.30
2019-01-13T01:15:17.174Z,5.20
2019-01-13T01:17:46.634Z,5.10
2019-01-13T01:20:14.345Z,5.10
2019-01-13T01:22:42.949Z,5.10
2019-01-13T01:25:13.005Z,5.10
2019-01-13T01:27:44.981Z,5.00
2019-01-13T01:30:17.719Z,4.90
2019-01-13T01:32:46.131Z,4.90
2019-01-13T01:35:13.686Z,4.90
2019-01-13T01:37:41.167Z,4.90
2019-01-13T01:40:15.544Z,4.90
2019-01-13T01:42:43.416Z,4.80
2019-01-13T01:45:13.397Z,4.70
2019-01-13T01:47:41.328Z,4.70
2019-01-13T01:50:10.322Z,4.70
2019-01-13T01:52:37.698Z,4.60
2019-01-13T01:55:07.734Z,4.50
2019-01-13T01:57:35.541Z,4.50
2019-01-13T02:00:09.216Z,4.50
2019-01-13T02:02:37.106Z,4.60
2019-01-13T02:05:05.301Z,4.60
2019-01-13T02:07:33.921Z,4.60
2019-01-13T02:10:01.905Z,4.50
2019-01-13T02:12:29.306Z,4.50
2019-01-13T02:14:56.822Z,4.60
2019-01-13T02:17:24.097Z,4.70
2019-01-13T02:19:51.722Z,4.60
2019-01-13T02:22:19.222Z,4.70
2019-01-13T02:24:46.906Z,4.60
2019-01-13T02:27:14.791Z,4.50
2019-01-13T02:29:42.644Z,4.60
2019-01-13T02:32:10.003Z,4.60
2019-01-13T02:34:37.271Z,4.60
2019-01-13T02:37:04.500Z,4.70
2019-01-13T02:39:31.846Z,4.80
2019-01-13T02:41:59.754Z,4.80
2019-01-13T02:44:27.393Z,4.80
2019-01-13T02:46:55.138Z,4.90
2019-01-13T02:49:22.944Z,4.80
2019-01-13T02:51:50.747Z,4.90
2019-01-13T02:54:18.645Z,4.90
2019-01-13T02:56:46.567Z,5.00
2019-01-13T02:59:14.369Z,5.10
2019-01-13T03:01:41.725Z,5.10
2019-01-13T03:04:09.403Z,5.10
2019-01-13T03:06:36.772Z,5.20
2019-01-13T03:09:07.097Z,5.10
2019-01-13T03:11:34.818Z,5.10
2019-01-13T03:14:02.768Z,5.10
2019-01-13T03:16:30.463Z,5.10
2019-01-13T03:18:58.335Z,5.20
2019-01-13T03:21:26.366Z,5.10
2019-01-13T03:23:54.067Z,5.10
2019-01-13T03:26:21.882Z,5.10
2019-01-13T03:28:49.582Z,5.10
2019-01-13T03:31:17.301Z,5.00
2019-01-13T03:33:48.660Z,5.10
2019-01-13T03:36:16.170Z,5.10
2019-01-13T03:38:43.699Z,5.10
2019-01-13T03:41:11.854Z,5.10
2019-01-13T03:43:39.440Z,5.10
2019-01-13T03:46:06.960Z,5.10
2019-01-13T03:48:34.714Z,5.10
2019-01-13T03:51:02.514Z,5.10
2019-01-13T03:53:29.758Z,5.10
2019-01-13T03:55:59.914Z,5.10
2019-01-13T03:58:27.286Z,5.10
2019-01-13T04:00:54.927Z,5.10
2019-01-13T04:03:22.671Z,5.10
2019-01-13T04:05:50.334Z,5.10
2019-01-13T04:08:17.462Z,5.10
2019-01-13T04:10:45.073Z,5.10
2019-01-13T04:13:12.946Z,5.10
2019-01-13T04:15:54.441Z,5.10
2019-01-13T04:18:21.909Z,5.10
2019-01-13T04:20:49.515Z,5.20
2019-01-13T04:23:16.943Z,5.20
2019-01-13T04:25:44.484Z,5.20
2019-01-13T04:28:12.053Z,5.20
2019-01-13T04:30:39.214Z,5.20
2019-01-13T04:33:07.143Z,5.20
2019-01-13T04:35:34.517Z,5.30
2019-01-13T04:38:05.876Z,5.30
2019-01-13T04:40:33.593Z,5.30
2019-01-13T04:43:01.685Z,5.20
2019-01-13T04:45:29.437Z,5.20
2019-01-13T04:47:56.733Z,5.20
2019-01-13T04:50:24.208Z,5.20
2019-01-13T04:52:51.826Z,5.20
2019-01-13T04:55:19.309Z,5.20
2019-01-13T04:57:46.903Z,5.20
2019-01-13T05:00:16.723Z,5.20
2019-01-13T05:02:44.533Z,5.20
2019-01-13T05:05:12.045Z,5.20
2019-01-13T05:07:39.755Z,5.20
2019-01-13T05:10:12.113Z,5.10
2019-01-13T05:12:39.972Z,5.10
2019-01-13T05:15:08.409Z,5.10
2019-01-13T05:17:36.125Z,5.00
2019-01-13T05:20:07.499Z,5.00
2019-01-13T05:22:35.221Z,5.10
2019-01-13T05:25:03.743Z,5.10
2019-01-13T05:27:31.015Z,5.10
2019-01-13T05:29:58.871Z,5.20
2019-01-13T05:32:26.119Z,5.30
2019-01-13T05:34:53.489Z,5.30
2019-01-13T05:37:21.002Z,5.40
2019-01-13T05:39:48.722Z,5.30
2019-01-13T05:42:16.288Z,5.40
2019-01-13T05:44:43.787Z,5.40
2019-01-13T05:47:11.383Z,5.40
2019-01-13T05:49:38.811Z,5.40
2019-01-13T05:52:06.610Z,5.40
2019-01-13T05:54:34.103Z,5.40
2019-01-13T05:57:01.504Z,5.50
2019-01-13T05:59:29.729Z,5.50
2019-01-13T06:01:56.957Z,5.50
2019-01-13T06:04:24.881Z,5.50
2019-01-13T06:06:53.274Z,5.50
2019-01-13T06:09:20.770Z,5.50
2019-01-13T06:11:48.242Z,5.50
2019-01-13T06:14:15.833Z,5.50
2019-01-13T06:16:43.290Z,5.50
2019-01-13T06:19:10.998Z,5.50
2019-01-13T06:21:38.706Z,5.50
2019-01-13T06:24:06.412Z,5.50
2019-01-13T06:26:33.681Z,5.50
2019-01-13T06:29:01.267Z,5.50
2019-01-13T06:31:29.002Z,5.50
2019-01-13T06:33:56.714Z,5.50
2019-01-13T06:36:24.397Z,5.50
2019-01-13T06:38:52.376Z,5.50
2019-01-13T06:41:19.956Z,5.50
2019-01-13T06:43:47.674Z,5.50
2019-01-13T06:46:15.231Z,5.50
2019-01-13T06:48:43.416Z,5.60
2019-01-13T06:51:11.244Z,5.50
2019-01-13T06:53:39.121Z,5.60
2019-01-13T06:56:07.218Z,5.60
2019-01-13T06:58:34.812Z,5.60
2019-01-13T07:01:02.200Z,5.60
2019-01-13T07:03:29.974Z,5.60
2019-01-13T07:05:57.990Z,5.60
2019-01-13T07:08:25.517Z,5.70
2019-01-13T07:10:52.638Z,5.70
2019-01-13T07:13:20.542Z,5.70
2019-01-13T07:15:48.091Z,5.70
2019-01-13T07:18:16.767Z,5.70
2019-01-13T07:20:44.275Z,5.70
2019-01-13T07:23:11.841Z,5.70
2019-01-13T07:25:39.245Z,5.70
2019-01-13T07:28:07.449Z,5.80
2019-01-13T07:30:34.558Z,5.80
2019-01-13T07:33:02.046Z,5.80
2019-01-13T07:35:29.158Z,5.80
2019-01-13T07:37:56.408Z,5.90
2019-01-13T07:40:24.414Z,5.80
2019-01-13T07:42:53.365Z,5.80
2019-01-13T07:45:26.164Z,5.80
2019-01-13T07:47:53.790Z,5.90
2019-01-13T07:50:21.332Z,5.80
2019-01-13T07:52:48.836Z,5.80
2019-01-13T07:55:20.920Z,5.90
2019-01-13T07:57:48.819Z,5.90
2019-01-13T08:00:29.050Z,5.90
2019-01-13T08:02:56.801Z,5.90
2019-01-13T08:05:24.368Z,5.90
2019-01-13T08:07:51.856Z,5.90
2019-01-13T08:10:19.205Z,6.00
2019-01-13T08:12:46.880Z,6.00
2019-01-13T08:15:17.460Z,6.00
2019-01-13T08:17:46.099Z,6.00
2019-01-13T08:20:18.682Z,6.00
2019-01-13T08:22:46.496Z,6.00
2019-01-13T08:25:14.322Z,6.00
2019-01-13T08:27:41.613Z,6.10
2019-01-13T08:30:13.801Z,6.10
2019-01-13T08:32:41.529Z,6.10
2019-01-13T08:35:09.010Z,6.20
2019-01-13T08:37:36.371Z,6.20
2019-01-13T08:40:08.430Z,6.20
2019-01-13T08:42:36.134Z,6.20
2019-01-13T08:45:05.686Z,6.20
2019-01-13T08:47:33.470Z,6.30
2019-01-13T08:50:01.542Z,6.20
2019-01-13T08:52:29.156Z,6.30
2019-01-13T08:54:56.826Z,6.30
2019-01-13T08:57:24.216Z,6.30
2019-01-13T08:59:51.661Z,6.30
2019-01-13T09:02:19.743Z,6.30
2019-01-13T09:04:46.966Z,6.40
2019-01-13T09:07:14.452Z,6.40
2019-01-13T09:09:41.833Z,6.50
2019-01-13T09:12:09.297Z,6.50
2019-01-13T09:14:37.037Z,6.40
2019-01-13T09:17:04.376Z,6.40
2019-01-13T09:19:31.813Z,6.40
2019-01-13T09:21:59.523Z,6.40
2019-01-13T09:24:28.105Z,6.40
2019-01-13T09:26:55.474Z,6.50
2019-01-13T09:29:22.928Z,6.50
2019-01-13T09:31:50.359Z,6.50
2019-01-13T09:34:17.623Z,6.50
2019-01-13T09:36:45.120Z,6.50
2019-01-13T09:39:12.706Z,6.60
2019-01-13T09:41:39.930Z,6.60
2019-01-13T09:44:07.206Z,6.60
2019-01-13T09:46:34.886Z,6.60
2019-01-13T09:49:02.681Z,6.70
2019-01-13T09:51:30.275Z,6.70
2019-01-13T09:53:57.934Z,6.80
2019-01-13T09:56:25.610Z,6.80
2019-01-13T09:58:53.169Z,6.90
2019-01-13T10:01:21.360Z,6.90
2019-01-13T10:03:48.798Z,6.90
2019-01-13T10:06:17.004Z,6.90
2019-01-13T10:08:44.914Z,6.90
2019-01-13T10:11:13.303Z,6.90
2019-01-13T10:13:40.689Z,6.90
2019-01-13T10:16:08.127Z,6.90
2019-01-13T10:18:36.149Z,6.80
2019-01-13T10:21:03.458Z,6.90
2019-01-13T10:23:30.804Z,6.90
2019-01-13T10:25:58.177Z,6.90
2019-01-13T10:28:26.115Z,6.80
2019-01-13T10:30:54.281Z,6.80
2019-01-13T10:33:22.299Z,6.80
2019-01-13T10:35:49.899Z,6.80
2019-01-13T10:38:17.638Z,6.80
2019-01-13T10:40:45.387Z,6.90
2019-01-13T10:43:13.189Z,6.90
2019-01-13T10:45:40.985Z,6.90
2019-01-13T10:48:09.449Z,6.90
2019-01-13T10:50:36.794Z,6.90
2019-01-13T10:53:06.974Z,6.90
2019-01-13T10:55:34.868Z,6.90
2019-01-13T10:58:02.516Z,7.00
2019-01-13T11:00:33.200Z,7.00
2019-01-13T11:03:02.431Z,6.90
2019-01-13T11:05:34.106Z,7.00
2019-01-13T11:08:02.729Z,7.00
2019-01-13T11:10:30.513Z,7.00
2019-01-13T11:12:58.143Z,7.00
2019-01-13T11:15:26.158Z,7.00
2019-01-13T11:17:53.547Z,7.00
2019-01-13T11:20:27.753Z,7.00
2019-01-13T11:22:55.113Z,7.10
2019-01-13T11:25:22.616Z,7.10
2019-01-13T11:27:50.342Z,7.10
2019-01-13T11:30:20.448Z,7.10
2019-01-13T11:32:47.903Z,7.10
2019-01-13T11:35:15.697Z,7.20
2019-01-13T11:37:43.765Z,7.20
2019-01-13T11:40:14.785Z,7.20
2019-01-13T11:42:42.409Z,7.30
2019-01-13T11:45:10.785Z,7.30
2019-01-13T11:47:42.892Z,7.30
2019-01-13T11:50:16.353Z,7.30
2019-01-13T11:52:44.210Z,7.30
2019-01-13T11:55:13.147Z,7.40
2019-01-13T11:57:40.595Z,7.30
2019-01-13T12:00:20.156Z,7.40
2019-01-13T12:02:47.859Z,7.40
2019-01-13T12:05:15.815Z,7.50
2019-01-13T12:07:44.278Z,7.50
2019-01-13T12:10:14.326Z,7.50
2019-01-13T12:12:42.132Z,7.50
2019-01-13T12:15:12.184Z,7.60
2019-01-13T12:17:39.972Z,7.60
2019-01-13T12:20:10.889Z,7.60
2019-01-13T12:22:39.272Z,7.70
2019-01-13T12:25:09.133Z,7.60
2019-01-13T12:27:36.782Z,7.70
2019-01-13T12:30:08.489Z,7.60
2019-01-13T12:32:36.083Z,7.70
2019-01-13T12:35:04.587Z,7.70
2019-01-13T12:37:32.240Z,7.80
2019-01-13T12:40:00.167Z,7.80
2019-01-13T12:42:27.710Z,7.80
2019-01-13T12:44:55.088Z,7.80
2019-01-13T12:47:22.825Z,7.90
2019-01-13T12:49:50.347Z,7.90
2019-01-13T12:52:18.492Z,8.00
2019-01-13T12:54:45.604Z,8.00
2019-01-13T12:57:12.966Z,8.00
2019-01-13T12:59:40.469Z,8.00
2019-01-13T13:02:07.913Z,8.00
2019-01-13T13:04:35.158Z,8.00
2019-01-13T13:07:02.962Z,8.10
2019-01-13T13:09:30.506Z,8.00
2019-01-13T13:11:57.898Z,7.90
2019-01-13T13:14:25.149Z,7.90
2019-01-13T13:16:53.849Z,8.00
2019-01-13T13:19:21.171Z,7.90
2019-01-13T13:21:48.434Z,8.00
2019-01-13T13:24:16.417Z,8.10
2019-01-13T13:26:45.006Z,8.10
2019-01-13T13:29:12.856Z,8.10
2019-01-13T13:31:40.268Z,8.10
2019-01-13T13:34:08.316Z,8.20
2019-01-13T13:36:36.818Z,8.20
2019-01-13T13:39:07.913Z,8.10
2019-01-13T13:41:35.498Z,8.10
2019-01-13T13:44:03.794Z,8.10
2019-01-13T13:46:31.323Z,8.10
2019-01-13T13:48:59.131Z,8.10
2019-01-13T13:51:26.604Z,8.20
2019-01-13T13:53:53.929Z,8.10
2019-01-13T13:56:24.550Z,8.10
2019-01-13T13:58:52.274Z,8.10
2019-01-13T14:01:22.333Z,8.20
2019-01-13T14:03:50.068Z,8.20
2019-01-13T14:06:17.588Z,8.10
2019-01-13T14:08:45.341Z,8.20
2019-01-13T14:11:18.769Z,8.10
2019-01-13T14:13:46.581Z,8.20
2019-01-13T14:16:15.518Z,8.20
2019-01-13T14:18:48.122Z,8.20
2019-01-13T14:21:19.380Z,8.20
2019-01-13T14:23:51.541Z,8.20
2019-01-13T14:26:19.406Z,8.20
2019-01-13T14:28:47.296Z,8.20
2019-01-13T14:31:15.030Z,8.20
2019-01-13T14:33:42.786Z,8.20
2019-01-13T14:36:12.401Z,8.20
2019-01-13T14:38:40.282Z,8.30
2019-01-13T14:41:15.055Z,8.20
2019-01-13T14:43:43.126Z,8.30
2019-01-13T14:46:10.633Z,8.20
2019-01-13T14:48:38.519Z,8.30
2019-01-13T14:51:05.802Z,8.20
2019-01-13T14:53:32.909Z,8.20
2019-01-13T14:56:00.140Z,8.20
2019-01-13T14:58:27.537Z,8.20
2019-01-13T15:00:54.927Z,8.30
2019-01-13T15:03:22.484Z,8.30
2019-01-13T15:05:49.869Z,8.30
2019-01-13T15:08:17.490Z,8.30
2019-01-13T15:10:45.024Z,8.30
2019-01-13T15:13:12.387Z,8.30
2019-01-13T15:15:40.298Z,8.30
2019-01-13T15:18:08.284Z,8.30
2019-01-13T15:20:35.801Z,8.30
2019-01-13T15:23:03.874Z,8.40
2019-01-13T15:25:31.701Z,8.40
2019-01-13T15:27:59.783Z,8.40
2019-01-13T15:30:35.913Z,8.40
2019-01-13T15:33:05.193Z,8.40
2019-01-13T15:35:32.973Z,8.40
2019-01-13T15:38:01.237Z,8.30
2019-01-13T15:40:28.712Z,8.30
2019-01-13T15:42:56.440Z,8.30
2019-01-13T15:45:23.706Z,8.30
2019-01-13T15:47:51.444Z,8.30
2019-01-13T15:50:22.314Z,8.40
2019-01-13T15:52:50.224Z,8.30
2019-01-13T15:55:19.064Z,8.30
2019-01-13T15:57:47.074Z,8.40
2019-01-13T16:00:24.362Z,8.30
2019-01-13T16:02:52.616Z,8.40
2019-01-13T16:05:20.618Z,8.30
2019-01-13T16:07:48.635Z,8.40
2019-01-13T16:10:19.064Z,8.30
2019-01-13T16:12:46.558Z,8.40
2019-01-13T16:15:14.745Z,8.40
2019-01-13T16:17:42.522Z,8.40
2019-01-13T16:20:22.384Z,8.40
2019-01-13T16:22:49.819Z,8.40
2019-01-13T16:25:18.230Z,8.40
2019-01-13T16:27:45.898Z,8.40
2019-01-13T16:30:20.084Z,8.40
2019-01-13T16:32:48.172Z,8.50
2019-01-13T16:35:15.928Z,8.40
2019-01-13T16:37:43.699Z,8.40
2019-01-13T16:40:14.050Z,8.50
2019-01-13T16:42:41.527Z,8.50
2019-01-13T16:45:10.749Z,8.50
2019-01-13T16:47:38.543Z,8.50
2019-01-13T16:50:13.264Z,8.50
2019-01-13T16:52:41.139Z,8.50
2019-01-13T16:55:08.958Z,8.50
2019-01-13T16:57:37.056Z,8.50
2019-01-13T17:00:10.522Z,8.50
2019-01-13T17:02:38.559Z,8.50
2019-01-13T17:05:07.214Z,8.50
2019-01-13T17:07:34.687Z,8.60
2019-01-13T17:10:03.234Z,8.50
2019-01-13T17:12:31.172Z,8.60
2019-01-13T17:14:58.347Z,8.50
2019-01-13T17:17:25.961Z,8.60
2019-01-13T17:19:54.421Z,8.60
2019-01-13T17:22:23.266Z,8.60
2019-01-13T17:24:50.651Z,8.50
2019-01-13T17:27:18.265Z,8.60
2019-01-13T17:29:45.801Z,8.60
2019-01-13T17:32:13.900Z,8.50
2019-01-13T17:34:41.788Z,8.60
2019-01-13T17:37:09.879Z,8.60
2019-01-13T17:39:37.370Z,8.60
2019-01-13T17:42:12.654Z,8.50
2019-01-13T17:44:41.756Z,8.60
2019-01-13T17:47:09.109Z,8.60
2019-01-13T17:49:36.510Z,8.50
2019-01-13T17:52:04.056Z,8.50
2019-01-13T17:54:31.367Z,8.60
2019-01-13T17:56:59.230Z,8.60
2019-01-13T17:59:27.838Z,8.50
2019-01-13T18:01:55.663Z,8.60
2019-01-13T18:04:23.044Z,8.50
2019-01-13T18:06:51.775Z,8.60
2019-01-13T18:09:19.377Z,8.60
2019-01-13T18:11:46.689Z,8.60
2019-01-13T18:14:14.529Z,8.60
2019-01-13T18:16:42.178Z,8.60
2019-01-13T18:19:09.811Z,8.60
2019-01-13T18:21:37.098Z,8.60
2019-01-13T18:24:08.069Z,8.60
2019-01-13T18:26:35.360Z,8.60
2019-01-13T18:29:02.892Z,8.60
2019-01-13T18:31:31.237Z,8.70
2019-01-13T18:33:58.974Z,8.70
2019-01-13T18:36:27.034Z,8.70
2019-01-13T18:38:54.508Z,8.70
2019-01-13T18:41:22.628Z,8.60
2019-01-13T18:43:50.186Z,8.70
2019-01-13T18:46:19.310Z,8.70
2019-01-13T18:48:46.708Z,8.70
2019-01-13T18:51:14.223Z,8.70
2019-01-13T18:53:42.342Z,8.70
2019-01-13T18:56:09.945Z,8.70
2019-01-13T18:58:37.073Z,8.70
2019-01-13T19:01:05.067Z,8.70
2019-01-13T19:03:32.580Z,8.70
2019-01-13T19:06:00.027Z,8.70
2019-01-13T19:08:28.135Z,8.70
2019-01-13T19:11:12.246Z,8.70
2019-01-13T19:14:35.537Z,8.60
2019-01-13T19:17:24.131Z,8.70
2019-01-13T19:19:56.417Z,8.50
2019-01-13T19:22:26.388Z,8.40
2019-01-13T19:25:01.093Z,8.40
2019-01-13T19:27:28.357Z,8.40
2019-01-13T19:29:56.546Z,8.30
2019-01-13T19:32:24.649Z,8.40
2019-01-13T19:34:52.696Z,8.40
2019-01-13T19:37:19.886Z,8.40
2019-01-13T19:39:55.955Z,8.40
2019-01-13T19:42:29.047Z,8.40
2019-01-13T19:44:57.440Z,8.50
2019-01-13T19:47:25.309Z,8.40
2019-01-13T19:49:53.030Z,8.50
2019-01-13T19:52:20.717Z,8.40
2019-01-13T19:54:48.315Z,8.40
2019-01-13T19:57:19.497Z,8.40
2019-01-13T19:59:53.308Z,8.20
2019-01-13T20:02:27.774Z,8.20
2019-01-13T20:04:55.223Z,8.10
2019-01-13T20:07:23.245Z,8.00
2019-01-13T20:09:50.482Z,7.80
2019-01-13T20:12:18.371Z,7.70
2019-01-13T20:14:46.401Z,7.70
2019-01-13T20:17:14.323Z,7.60
2019-01-13T20:19:41.570Z,7.50
2019-01-13T20:22:15.370Z,7.40
2019-01-13T20:24:45.033Z,7.40
2019-01-13T20:27:13.120Z,7.10
2019-01-13T20:29:44.039Z,7.10
2019-01-13T20:32:15.696Z,7.10
2019-01-13T20:34:44.007Z,7.10
2019-01-13T20:37:13.399Z,7.20
2019-01-13T20:39:41.548Z,7.20
2019-01-13T20:42:08.798Z,7.10
2019-01-13T20:44:38.280Z,7.10
2019-01-13T20:47:07.835Z,7.20
2019-01-13T20:49:35.522Z,7.30
2019-01-13T20:52:03.429Z,7.40
2019-01-13T20:54:31.181Z,7.30
2019-01-13T20:56:58.654Z,7.20
2019-01-13T20:59:26.720Z,7.10
2019-01-13T21:01:54.323Z,6.90
2019-01-13T21:04:22.441Z,6.70
2019-01-13T21:06:50.104Z,6.50
2019-01-13T21:09:18.175Z,6.40
2019-01-13T21:11:46.178Z,6.20
2019-01-13T21:14:18.883Z,6.20
2019-01-13T21:16:46.730Z,6.10
2019-01-13T21:19:19.551Z,6.10
2019-01-13T21:21:50.917Z,5.90
2019-01-13T21:24:22.935Z,5.90
2019-01-13T21:26:51.943Z,5.80
2019-01-13T21:29:20.109Z,5.60
2019-01-13T21:31:48.832Z,5.60
2019-01-13T21:34:16.516Z,5.60
2019-01-13T21:36:44.046Z,5.40
2019-01-13T21:39:11.824Z,5.40
2019-01-13T21:41:39.967Z,5.30
2019-01-13T21:44:07.301Z,5.30
2019-01-13T21:46:34.805Z,5.30
2019-01-13T21:49:02.283Z,5.30
2019-01-13T21:51:29.692Z,5.10
2019-01-13T21:53:57.678Z,5.10
2019-01-13T21:56:25.626Z,5.20
2019-01-13T21:58:53.549Z,5.20
2019-01-13T22:01:20.696Z,5.30
2019-01-13T22:03:48.342Z,5.10
2019-01-13T22:06:16.768Z,5.00
2019-01-13T22:08:44.002Z,5.10
2019-01-13T22:11:11.385Z,5.20
2019-01-13T22:13:39.161Z,5.10
2019-01-13T22:16:07.021Z,5.20
2019-01-13T22:18:37.841Z,5.20
2019-01-13T22:21:05.355Z,5.30
2019-01-13T22:23:33.604Z,5.30
2019-01-13T22:26:00.859Z,5.30
2019-01-13T22:28:28.945Z,5.30
2019-01-13T22:30:56.173Z,5.30
2019-01-13T22:33:23.713Z,5.20
2019-01-13T22:35:51.893Z,5.30
2019-01-13T22:38:19.472Z,5.20
2019-01-13T22:40:46.997Z,5.40
2019-01-13T22:43:14.254Z,5.40
2019-01-13T22:45:41.937Z,5.20
2019-01-13T22:48:09.565Z,5.20
2019-01-13T22:50:37.663Z,5.00
2019-01-13T22:53:05.628Z,5.10
2019-01-13T22:55:33.506Z,5.40
2019-01-13T22:58:00.794Z,5.10
2019-01-13T23:01:18.252Z,5.20
2019-01-13T23:03:46.355Z,5.10
2019-01-13T23:06:13.859Z,4.90
2019-01-13T23:08:41.260Z,5.20
2019-01-13T23:11:09.090Z,5.10
2019-01-13T23:13:36.747Z,5.00
2019-01-13T23:16:05.059Z,5.10
2019-01-13T23:18:32.850Z,5.40
2019-01-13T23:21:00.986Z,5.30
2019-01-13T23:23:32.001Z,5.20
2019-01-13T23:25:59.518Z,5.10
2019-01-13T23:28:27.093Z,5.00
2019-01-13T23:30:54.189Z,5.10
2019-01-13T23:33:21.844Z,5.10
2019-01-13T23:35:49.172Z,5.10
2019-01-13T23:38:17.050Z,5.20
2019-01-13T23:40:45.039Z,5.30
2019-01-13T23:43:12.972Z,5.50
2019-01-13T23:45:40.630Z,5.50
2019-01-13T23:48:08.307Z,5.50
2019-01-13T23:50:35.549Z,5.60
2019-01-13T23:53:03.563Z,5.80
2019-01-13T23:55:31.082Z,5.70
2019-01-13T23:57:59.030Z,5.70
